Terminal Aerodrome Forecast
Issued by NWS Central Illinois

Home | Current Version | Previous Version | Text Only | Print | Product List | Glossary On
Versions: 1 2 3 4 5 6 7 8 9 10 11 12 13 14 15
691
FTUS43 KILX 281138
TAFPIA
TAF
KPIA 281138Z 2812/0112 18009KT P6SM OVC015
     FM281500 18013G21KT P6SM OVC015
     FM010000 20012KT P6SM -SHRA VCTS OVC035CB WS020/21045KT
     FM010800 26007KT P6SM BKN045=

USA.gov is the U.S. government's official web portal to all federal, state and local government web resources and services.